Etusivu
METAR-TAF:

METAR-TAF

Lentoasemat :

Chièvres, Belgia

Leveyspiiri: 50-34N, Pituuspiiri: 003-50E, korkeus merenpinnasta: 60 m

Tämänhetkinen sää

Tämä raportti tehtiin 34 minuuttia sitten, kello 05.25 UTC
Tuuli 5 kn lounaasta
Lämpötila 17°C
Kosteus 77%
Ilmanpaine 1016 hPa
Näkyvyys 10 km tai enemmän

METAR: EBCV 170525Z AUTO 22005KT 9999 FEW130/// 17/13 Q1016 BLU

Aika: 07:59 (05:59 UTC)

Sääennuste

Tämä raportti tehtiin 14 tuntia ja 18 minuuttia sitten, kello 15.41 UTC
Ennuste voimassa 16. päivästä klo 19 UTC - 17. päivään klo 07 UTC
Tuuli 6 kn luoteesta
Näkyvyys 10 km tai enemmän
Hajanaisia pilviä 8000 ft:n korkeudessa
Hajanaisia pilviä 22000 ft:n korkeudessa
Tulossa
17. päivästä klo 01 UTC - 17. päivään klo 03 UTC
Tuuli 6 kn lännestä/lounaasta
Muutamia pilviä 5000 ft:n korkeudessa
Hajanaisia pilviä 10000 ft:n korkeudessa

TAF: EBCV 161541Z 1619/1707 31006KT 9999 SCT080 SCT220 BECMG 1701/1703 25006KT FEW050 SCT100 BY EBWM

Säähavainnot ja -ennusteet yli 4000 lentoasemalta (METAR- ja TAF-raportit).

Käytössä olevat sääasemat on merkitty karttaan keltaisilla ja punaisilla pisteillä.

Aseta hiiri pisteen päälle nähdäksesi sääaseman nimen.

Klikkaa sitten nähdäksesi säähavainnot ja -ennusteet.

Kartan vaihtaminen: klikkaa mustalla rastilla varustettuja vihreitä pisteitä, niin voit zoomata sisään; viivalla varustettua vihreää pistettä, niin voit zoomata ulos tai vihreitä nuolia, niin pääset viereisille kartoille.


METAR-TAF: